Time;durP1;ratioP1;P1;durP2;ratioP2;P2;SDS_P1;SDS_P2;PMS_P1;PMS_P2;Temp;Humidity;BMP_temperature;BMP_pressure;BME280_temperature;BME280_humidity;BME280_pressure;Samples;Min_cycle;Max_cycle;Signal;HPM_P1;HPM_P2
2024/05/02 00:01:09;;;;;;;4.60;3.17;;;17.70;99.90;;;;;;10879660;27;20226;-85
2024/05/02 00:06:30;;;;;;;5.82;3.50;;;17.70;99.90;;;;;;10847116;27;20241;-85
2024/05/02 00:11:52;;;;;;;5.28;3.63;;;17.60;99.90;;;;;;10855665;27;20453;-87
2024/05/02 00:17:14;;;;;;;6.00;3.55;;;17.50;99.90;;;;;;10803959;27;20273;-85
2024/05/02 00:22:36;;;;;;;8.68;3.13;;;17.50;99.90;;;;;;10809366;27;20235;-85
2024/05/02 00:27:57;;;;;;;4.40;3.15;;;17.50;99.90;;;;;;10865949;27;20325;-85
2024/05/02 00:33:19;;;;;;;4.38;3.35;;;17.40;99.90;;;;;;10825029;27;20269;-86
2024/05/02 00:38:40;;;;;;;4.47;3.20;;;17.30;99.90;;;;;;10804737;27;20230;-87
2024/05/02 00:44:02;;;;;;;6.43;3.58;;;17.20;99.90;;;;;;10829794;27;20268;-85
2024/05/02 00:49:24;;;;;;;3.97;3.15;;;17.20;99.90;;;;;;10878285;27;20253;-84
2024/05/02 00:54:47;;;;;;;4.47;3.03;;;17.10;99.90;;;;;;10853362;27;20238;-85
2024/05/02 01:00:09;;;;;;;4.18;3.20;;;17.00;99.90;;;;;;10801918;27;20360;-86
2024/05/02 01:05:30;;;;;;;7.28;4.15;;;17.00;99.90;;;;;;10846927;27;20257;-84
2024/05/02 01:10:54;;;;;;;6.10;3.80;;;16.90;99.90;;;;;;10877317;27;20257;-83
2024/05/02 01:16:15;;;;;;;6.55;3.63;;;16.90;99.90;;;;;;10853094;27;20469;-83
2024/05/02 01:21:37;;;;;;;4.78;3.15;;;16.80;99.90;;;;;;10862824;27;20245;-84
2024/05/02 01:26:59;;;;;;;4.72;2.80;;;16.80;99.90;;;;;;10876785;27;20273;-85
2024/05/02 01:32:21;;;;;;;5.03;3.05;;;16.70;99.90;;;;;;10850973;27;20371;-85
2024/05/02 01:37:42;;;;;;;7.28;3.38;;;16.60;99.90;;;;;;10852904;27;20264;-85
2024/05/02 01:43:06;;;;;;;7.38;3.25;;;16.50;99.90;;;;;;10875536;27;20284;-84
2024/05/02 01:48:28;;;;;;;4.28;3.33;;;16.50;99.90;;;;;;10856689;27;20263;-84
2024/05/02 01:53:49;;;;;;;3.50;3.05;;;16.40;99.90;;;;;;10812313;27;20272;-84
2024/05/02 01:59:11;;;;;;;4.38;3.05;;;16.40;99.90;;;;;;10852910;27;20261;-84
2024/05/02 02:04:33;;;;;;;7.53;3.28;;;16.30;99.90;;;;;;10882501;27;20336;-84
2024/05/02 02:09:54;;;;;;;3.80;3.10;;;16.30;99.90;;;;;;10858019;27;20245;-84
2024/05/02 02:15:15;;;;;;;5.78;2.95;;;16.20;99.90;;;;;;10763124;27;20227;-84
2024/05/02 02:20:37;;;;;;;3.65;2.95;;;16.10;99.90;;;;;;10816403;27;20245;-83
2024/05/02 02:25:58;;;;;;;5.80;3.25;;;16.10;99.90;;;;;;10859164;27;20379;-85
2024/05/02 02:31:20;;;;;;;4.60;3.28;;;16.10;99.90;;;;;;10857283;27;20375;-86
2024/05/02 02:36:42;;;;;;;7.22;3.97;;;16.00;99.90;;;;;;10858657;27;20229;-85
2024/05/02 02:42:04;;;;;;;5.95;3.45;;;15.90;99.90;;;;;;10811068;27;20277;-87
2024/05/02 02:47:25;;;;;;;6.45;3.97;;;15.80;99.90;;;;;;10812749;27;20270;-86
2024/05/02 02:52:46;;;;;;;6.05;3.63;;;15.80;99.90;;;;;;10848221;27;20525;-86
2024/05/02 02:58:08;;;;;;;6.30;3.63;;;15.80;99.90;;;;;;10857677;27;20248;-87
2024/05/02 03:03:30;;;;;;;8.88;3.42;;;15.80;99.90;;;;;;10829247;27;20373;-86
2024/05/02 03:08:51;;;;;;;6.78;3.78;;;15.70;99.90;;;;;;10744050;27;20256;-86
2024/05/02 03:14:13;;;;;;;5.22;3.58;;;15.60;99.90;;;;;;10857884;27;20266;-87
2024/05/02 03:19:34;;;;;;;5.35;3.38;;;15.50;99.90;;;;;;10879310;27;20282;-85
2024/05/02 03:24:56;;;;;;;6.70;3.47;;;15.50;99.90;;;;;;10852770;27;20233;-87
2024/05/02 03:30:18;;;;;;;4.60;3.15;;;15.50;99.90;;;;;;10854914;27;20244;-86
2024/05/02 03:35:39;;;;;;;9.00;3.53;;;15.40;99.90;;;;;;10856676;27;20245;-84
2024/05/02 03:41:01;;;;;;;7.25;3.80;;;15.40;99.90;;;;;;10831968;27;20290;-84
2024/05/02 03:46:22;;;;;;;7.90;3.40;;;15.40;99.90;;;;;;10856230;27;20302;-84
2024/05/02 03:51:44;;;;;;;9.20;4.28;;;15.30;99.90;;;;;;10842587;27;20278;-83
2024/05/02 03:57:06;;;;;;;7.10;4.13;;;15.30;99.90;;;;;;10787545;27;20545;-87
2024/05/02 04:02:27;;;;;;;3.55;2.97;;;15.30;99.90;;;;;;10833647;27;20291;-87
2024/05/02 04:07:49;;;;;;;7.30;3.90;;;15.30;99.90;;;;;;10856239;27;20264;-87
2024/05/02 04:13:11;;;;;;;9.10;3.67;;;15.40;99.90;;;;;;10826460;27;20504;-86
2024/05/02 04:18:33;;;;;;;4.90;3.08;;;15.40;99.90;;;;;;10879992;27;20369;-85
2024/05/02 04:23:55;;;;;;;7.22;3.80;;;15.50;99.90;;;;;;10854001;27;20274;-86
2024/05/02 04:29:16;;;;;;;16.25;5.13;;;15.50;99.90;;;;;;10855817;27;20259;-87
2024/05/02 04:34:37;;;;;;;17.02;4.47;;;15.60;99.90;;;;;;10845996;27;20240;-85
2024/05/02 04:39:59;;;;;;;9.13;3.78;;;15.60;99.90;;;;;;10854959;27;20379;-82
2024/05/02 04:45:22;;;;;;;7.50;3.65;;;15.60;99.90;;;;;;10852400;27;20330;-84
2024/05/02 04:50:43;;;;;;;7.35;3.92;;;15.70;99.90;;;;;;10883387;27;20220;-83
2024/05/02 04:56:05;;;;;;;8.48;3.40;;;15.70;99.90;;;;;;10881326;27;20237;-87
2024/05/02 05:01:27;;;;;;;7.68;3.67;;;15.80;99.90;;;;;;10879704;27;20262;-87
2024/05/02 05:06:48;;;;;;;5.30;3.08;;;15.80;99.90;;;;;;10882078;27;20289;-87
2024/05/02 05:12:09;;;;;;;8.02;3.42;;;15.90;99.90;;;;;;10804711;27;20317;-85
2024/05/02 05:17:31;;;;;;;14.55;4.55;;;15.80;99.90;;;;;;10854289;27;20320;-87
2024/05/02 05:22:53;;;;;;;9.10;3.10;;;15.90;99.90;;;;;;10859737;27;20274;-83
2024/05/02 05:28:14;;;;;;;4.95;3.08;;;16.00;99.90;;;;;;10858457;27;20412;-83
2024/05/02 05:33:36;;;;;;;8.82;3.15;;;16.20;99.90;;;;;;10835665;27;20264;-82
2024/05/02 05:38:58;;;;;;;6.57;3.67;;;16.40;99.90;;;;;;10860047;27;20229;-83
2024/05/02 05:44:19;;;;;;;6.03;3.08;;;16.40;99.90;;;;;;10858453;27;20271;-86
2024/05/02 05:49:41;;;;;;;6.15;3.22;;;16.60;99.90;;;;;;10809711;27;20534;-86
2024/05/02 05:55:03;;;;;;;6.30;2.97;;;16.90;99.90;;;;;;10793922;27;20246;-84
2024/05/02 06:00:28;;;;;;;4.85;3.05;;;17.20;99.90;;;;;;10829636;27;20267;-86
2024/05/02 06:05:50;;;;;;;10.18;3.33;;;17.50;99.90;;;;;;10854692;27;20305;-88
2024/05/02 06:11:14;;;;;;;7.50;3.00;;;17.80;99.90;;;;;;10882620;27;20325;-84
2024/05/02 06:16:36;;;;;;;7.93;3.20;;;17.80;99.90;;;;;;10808733;27;20309;-85
2024/05/02 06:21:57;;;;;;;9.48;2.78;;;18.20;99.90;;;;;;10856861;27;20253;-84
2024/05/02 06:27:19;;;;;;;12.02;4.30;;;18.70;99.90;;;;;;10859249;27;20264;-87
2024/05/02 06:32:41;;;;;;;9.45;3.63;;;19.30;99.90;;;;;;10821758;27;20274;-86
2024/05/02 06:38:02;;;;;;;5.28;3.38;;;20.00;99.90;;;;;;10789998;27;20227;-85
2024/05/02 06:43:24;;;;;;;3.70;2.38;;;20.50;99.90;;;;;;10818557;27;20377;-85
2024/05/02 06:48:45;;;;;;;9.25;2.65;;;21.40;99.90;;;;;;10858173;27;20266;-85
2024/05/02 06:54:10;;;;;;;9.65;3.13;;;21.80;99.90;;;;;;10880701;27;20253;-86
2024/05/02 06:59:31;;;;;;;14.95;3.10;;;22.70;99.90;;;;;;10857868;27;20324;-86
2024/05/02 07:04:53;;;;;;;10.75;3.13;;;23.30;99.90;;;;;;10856080;27;20496;-87
2024/05/02 07:10:15;;;;;;;11.25;3.13;;;23.40;99.90;;;;;;10858601;27;20210;-87
2024/05/02 07:15:36;;;;;;;4.65;3.05;;;23.40;99.90;;;;;;10855761;27;20258;-86
2024/05/02 07:20:58;;;;;;;8.07;3.47;;;24.00;99.90;;;;;;10880119;27;20346;-86
2024/05/02 07:26:20;;;;;;;9.15;2.83;;;24.40;99.90;;;;;;10855428;27;20272;-85
2024/05/02 07:31:41;;;;;;;9.63;3.33;;;;;;;;;;10833016;27;20253;-88
2024/05/02 07:37:03;;;;;;;7.80;2.72;;;25.80;99.90;;;;;;10842424;27;20273;-85
2024/05/02 07:42:25;;;;;;;14.75;3.70;;;25.70;99.90;;;;;;10840626;27;20301;-83
2024/05/02 07:47:47;;;;;;;9.30;3.67;;;25.90;1.00;;;;;;10832684;27;20363;-84
2024/05/02 07:53:08;;;;;;;6.03;3.28;;;26.20;99.90;;;;;;10831466;27;20332;-85
2024/05/02 07:58:30;;;;;;;11.85;3.63;;;26.50;99.90;;;;;;10851450;27;20321;-84
2024/05/02 08:03:51;;;;;;;9.38;3.17;;;26.20;99.90;;;;;;10824474;27;20493;-83
2024/05/02 08:09:13;;;;;;;11.25;3.17;;;26.40;99.90;;;;;;10805322;27;20312;-84
2024/05/02 08:14:34;;;;;;;4.20;2.50;;;26.30;99.90;;;;;;10853796;27;20242;-84
2024/05/02 08:19:56;;;;;;;4.03;2.15;;;26.40;99.90;;;;;;10854520;27;20362;-86
2024/05/02 08:25:20;;;;;;;8.55;2.83;;;27.10;99.90;;;;;;10851857;27;20373;-85
2024/05/02 08:30:42;;;;;;;5.80;2.75;;;27.80;99.90;;;;;;10804519;27;20229;-83
2024/05/02 08:36:04;;;;;;;14.75;3.03;;;27.60;99.90;;;;;;10853219;27;20241;-86
2024/05/02 08:41:25;;;;;;;2.75;1.83;;;27.80;99.90;;;;;;10853403;27;20167;-86
2024/05/02 08:46:48;;;;;;;9.07;2.40;;;27.90;99.90;;;;;;10854325;27;20234;-85
2024/05/02 08:52:09;;;;;;;6.53;1.90;;;27.80;99.90;;;;;;10857028;27;20496;-85
2024/05/02 08:57:31;;;;;;;11.43;2.38;;;27.60;99.90;;;;;;10853360;27;20230;-85
2024/05/02 09:02:53;;;;;;;3.90;2.05;;;27.80;99.90;;;;;;10782913;27;20251;-85
2024/05/02 09:08:15;;;;;;;6.15;2.20;;;28.70;99.90;;;;;;10872710;27;20445;-85
2024/05/02 09:13:37;;;;;;;5.25;2.38;;;28.60;99.90;;;;;;10762323;27;20254;-84
2024/05/02 09:18:58;;;;;;;8.23;1.90;;;28.50;99.90;;;;;;10792592;27;20233;-87
2024/05/02 09:24:21;;;;;;;9.30;1.92;;;28.80;99.90;;;;;;10838040;27;20312;-85
2024/05/02 09:29:43;;;;;;;6.75;1.77;;;28.30;99.90;;;;;;10823220;27;20285;-85
2024/05/02 09:35:05;;;;;;;9.23;2.85;;;28.50;99.90;;;;;;10853372;27;20226;-86
2024/05/02 09:40:26;;;;;;;8.43;2.10;;;29.00;99.90;;;;;;10850251;27;20238;-86
2024/05/02 09:45:55;;;;;;;3.40;1.83;;;29.10;99.90;;;;;;10857603;27;20360;-86
2024/05/02 09:51:21;;;;;;;8.98;1.75;;;;;;;;;;10819963;27;20282;-86
2024/05/02 09:56:45;;;;;;;6.43;2.00;;;29.70;99.90;;;;;;10778839;27;20333;-86
2024/05/02 10:02:08;;;;;;;5.47;2.75;;;29.20;99.90;;;;;;10888980;27;20285;-86
2024/05/02 10:07:31;;;;;;;11.85;2.42;;;29.50;99.90;;;;;;10833102;27;20446;-86
2024/05/02 10:13:06;;;;;;;10.18;2.60;;;29.30;99.90;;;;;;10852484;27;20317;-87
2024/05/02 10:18:28;;;;;;;5.38;2.50;;;30.00;99.90;;;;;;10858472;27;20450;-87
2024/05/02 10:23:50;;;;;;;7.68;2.00;;;30.00;99.90;;;;;;10878538;27;20417;-86
2024/05/02 10:35:30;;;;;;;3.88;2.13;;;31.00;1.00;;;;;;10858200;27;20248;-85
2024/05/02 10:40:53;;;;;;;4.65;1.75;;;30.70;48.80;;;;;;10880153;27;20233;-85
2024/05/02 10:46:15;;;;;;;4.40;1.80;;;30.60;1.00;;;;;;10830080;27;20458;-85
2024/05/02 10:51:37;;;;;;;7.80;2.20;;;30.60;1.00;;;;;;10879976;27;20309;-86
2024/05/02 10:56:59;;;;;;;5.00;1.92;;;30.40;1.00;;;;;;10829915;27;20332;-86
2024/05/02 11:02:21;;;;;;;7.47;2.22;;;30.40;1.00;;;;;;10844772;27;20250;-86
2024/05/02 11:07:43;;;;;;;7.28;2.50;;;30.50;1.00;;;;;;10881387;27;20291;-86
2024/05/02 11:13:04;;;;;;;5.40;2.38;;;31.40;99.90;;;;;;10855247;27;20272;-86
2024/05/02 11:18:26;;;;;;;4.43;2.33;;;;;;;;;;10851703;27;20257;-87
2024/05/02 11:23:48;;;;;;;12.00;2.85;;;31.80;1.00;;;;;;10855110;27;20333;-86
2024/05/02 11:29:10;;;;;;;9.95;1.80;;;31.40;99.90;;;;;;10806468;27;20226;-87
2024/05/02 11:34:31;;;;;;;7.07;2.13;;;30.90;99.90;;;;;;10799738;27;20281;-87
2024/05/02 11:39:52;;;;;;;4.57;2.45;;;31.00;99.90;;;;;;10810663;27;20243;-85
2024/05/02 11:45:27;;;;;;;10.38;1.80;;;31.00;99.90;;;;;;10877413;27;20279;-86
2024/05/02 11:50:50;;;;;;;8.10;2.55;;;30.90;99.90;;;;;;10857248;27;20230;-86
2024/05/02 11:56:11;;;;;;;13.23;2.50;;;30.70;99.90;;;;;;10850968;27;20317;-86
2024/05/02 12:01:32;;;;;;;4.75;2.10;;;30.30;99.90;;;;;;10854091;27;20253;-86
2024/05/02 12:06:54;;;;;;;8.23;2.50;;;30.50;99.90;;;;;;10879860;27;20272;-86
2024/05/02 12:12:15;;;;;;;3.55;1.73;;;30.60;99.90;;;;;;10826810;27;20268;-86
2024/05/02 12:17:37;;;;;;;14.13;2.42;;;31.20;99.90;;;;;;10879723;27;20222;-86
2024/05/02 12:22:59;;;;;;;7.03;1.60;;;30.50;99.90;;;;;;10851230;27;20344;-86
2024/05/02 12:28:20;;;;;;;6.90;1.70;;;30.30;99.90;;;;;;10847824;27;20381;-86
2024/05/02 12:33:42;;;;;;;14.52;2.50;;;30.30;99.90;;;;;;10830886;27;20329;-86
2024/05/02 12:39:19;;;;;;;6.60;2.00;;;29.90;99.90;;;;;;10854094;27;20256;-86
2024/05/02 12:45:05;;;;;;;4.47;1.83;;;29.80;1.00;;;;;;10826184;27;20235;-85
2024/05/02 12:50:27;;;;;;;8.13;1.63;;;29.80;1.00;;;;;;10804691;27;20312;-85
2024/05/02 12:55:48;;;;;;;4.28;1.60;;;29.80;1.00;;;;;;10854008;27;20454;-85
2024/05/02 13:01:10;;;;;;;5.07;1.70;;;29.30;1.00;;;;;;10877031;27;20222;-85
2024/05/02 13:06:32;;;;;;;8.32;2.30;;;29.50;1.00;;;;;;10877038;27;20230;-86
2024/05/02 13:11:53;;;;;;;3.42;1.88;;;29.50;1.00;;;;;;10850168;27;20276;-86
2024/05/02 13:17:14;;;;;;;10.10;1.75;;;29.50;1.00;;;;;;10852975;27;20481;-86
2024/05/02 13:22:37;;;;;;;7.40;2.33;;;28.60;99.90;;;;;;10824182;27;20276;-85
2024/05/02 13:27:58;;;;;;;6.18;1.88;;;28.50;1.00;;;;;;10848640;27;20285;-86
2024/05/02 13:33:20;;;;;;;9.50;1.88;;;28.90;1.00;;;;;;10805740;27;20269;-86
2024/05/02 13:38:41;;;;;;;4.13;1.85;;;28.80;1.00;;;;;;10837467;27;20585;-86
2024/05/02 13:44:03;;;;;;;8.88;2.50;;;28.30;1.00;;;;;;10858521;27;20328;-84
2024/05/02 13:49:25;;;;;;;6.75;2.13;;;28.40;1.00;;;;;;10849387;27;20243;-85
2024/05/02 13:54:46;;;;;;;13.07;2.08;;;28.20;99.90;;;;;;10813409;27;20227;-84
2024/05/02 14:00:08;;;;;;;10.38;2.03;;;27.60;99.90;;;;;;10860948;27;20260;-84
2024/05/02 14:05:31;;;;;;;3.35;1.98;;;27.80;99.90;;;;;;10831471;27;20308;-85
2024/05/02 14:10:53;;;;;;;5.93;1.65;;;28.00;1.00;;;;;;10881633;27;20237;-85
2024/05/02 14:48:35;;;;;;;4.07;1.95;;;27.00;1.00;;;;;;10327535;28;20226;-85
2024/05/02 14:53:56;;;;;;;6.55;2.08;;;27.00;1.00;;;;;;10323512;28;20247;-84
2024/05/02 14:59:18;;;;;;;4.55;1.60;;;26.80;36.50;;;;;;10328755;28;20294;-84
2024/05/02 15:04:39;;;;;;;7.22;1.50;;;26.80;26.40;;;;;;10395983;28;20341;-86
2024/05/02 15:10:03;;;;;;;2.95;2.10;;;26.80;88.80;;;;;;10577239;27;20288;-85
2024/05/02 15:15:25;;;;;;;2.13;1.50;;;26.70;99.90;;;;;;10556359;27;20337;-85
2024/05/02 15:20:47;;;;;;;10.25;2.25;;;26.70;99.90;;;;;;10683288;27;20247;-85
2024/05/02 15:26:09;;;;;;;4.95;1.70;;;;;;;;;;10820453;27;20213;-84
2024/05/02 15:31:32;;;;;;;5.70;2.10;;;;;;;;;;10879498;27;20493;-85
2024/05/02 15:36:54;;;;;;;6.82;1.88;;;;;;;;;;10832114;27;20278;-85
2024/05/02 15:42:16;;;;;;;3.55;1.83;;;;;;;;;;10856626;27;20226;-85
2024/05/02 15:47:38;;;;;;;3.70;1.58;;;;;;;;;;10879341;27;20276;-85
2024/05/02 15:59:48;;;;;;;5.75;1.65;;;25.70;1.00;;;;;;10877083;27;20246;-86
2024/05/02 16:05:35;;;;;;;6.82;1.25;;;25.70;1.00;;;;;;10798480;27;20242;-85
2024/05/02 16:21:38;;;;;;;5.35;1.83;;;;;;;;;;10772325;27;20303;-85
2024/05/02 16:26:59;;;;;;;3.33;1.60;;;;;;;;;;10786947;27;20231;-85
2024/05/02 16:32:21;;;;;;;2.45;1.60;;;;;;;;;;10808073;27;20235;-86
2024/05/02 16:37:43;;;;;;;3.85;1.73;;;;;;;;;;10783816;27;20463;-85
2024/05/02 16:43:05;;;;;;;6.30;2.00;;;;;;;;;;10809821;27;20279;-85
2024/05/02 16:48:28;;;;;;;5.07;2.15;;;;;;;;;;10784799;27;20285;-85
2024/05/02 16:53:50;;;;;;;8.82;2.05;;;;;;;;;;10741411;27;20565;-85
2024/05/02 16:59:12;;;;;;;5.68;2.10;;;;;;;;;;10778688;27;20239;-85
2024/05/02 17:04:34;;;;;;;5.82;1.85;;;24.80;1.00;;;;;;10784214;27;20259;-85
2024/05/02 17:09:56;;;;;;;6.55;2.40;;;;;;;;;;10643753;27;20271;-85
2024/05/02 17:15:18;;;;;;;4.80;2.72;;;;;;;;;;10650494;27;20313;-84
2024/05/02 17:20:40;;;;;;;6.03;2.70;;;;;;;;;;10771747;27;20273;-85
2024/05/02 17:26:01;;;;;;;5.40;2.58;;;;;;;;;;10722166;27;20263;-85
2024/05/02 17:31:27;;;;;;;3.65;1.80;;;;;;;;;;10750758;27;20436;-85
2024/05/02 17:36:48;;;;;;;3.10;1.73;;;;;;;;;;10745317;27;20295;-85
2024/05/02 17:42:11;;;;;;;5.15;2.80;;;;;;;;;;10696362;27;20251;-85
2024/05/02 17:47:34;;;;;;;3.42;2.20;;;;;;;;;;10721828;27;20274;-85
2024/05/02 17:52:56;;;;;;;4.38;2.40;;;;;;;;;;10689822;27;20245;-84
2024/05/02 17:58:18;;;;;;;4.30;2.33;;;;;;;;;;10743103;27;20322;-85
2024/05/02 18:03:40;;;;;;;7.15;2.33;;;;;;;;;;10808878;27;20277;-85
2024/05/02 18:09:02;;;;;;;9.68;3.13;;;;;;;;;;10857081;27;20320;-84
2024/05/02 18:14:24;;;;;;;8.05;3.80;;;23.70;1.00;;;;;;10857411;27;20498;-85
2024/05/02 18:19:45;;;;;;;9.60;3.40;;;23.50;1.00;;;;;;10881894;27;20267;-86
2024/05/02 18:25:11;;;;;;;5.63;2.83;;;;;;;;;;10857508;27;20340;-85
2024/05/02 18:30:32;;;;;;;5.47;2.53;;;;;;;;;;10785629;27;20306;-85
2024/05/02 18:35:54;;;;;;;5.47;2.67;;;;;;;;;;10816446;27;20242;-85
2024/05/02 18:41:16;;;;;;;4.65;2.33;;;;;;;;;;10881245;27;20226;-85
2024/05/02 18:46:40;;;;;;;5.00;2.30;;;;;;;;;;10856774;27;20280;-85
2024/05/02 18:52:02;;;;;;;4.70;3.10;;;23.10;99.90;;;;;;10835185;27;20171;-85
2024/05/02 18:57:27;;;;;;;6.90;3.03;;;22.80;99.90;;;;;;10880308;27;20315;-85
2024/05/02 19:02:49;;;;;;;7.38;2.97;;;22.50;1.00;;;;;;10881193;27;20230;-85
2024/05/02 19:08:11;;;;;;;7.93;3.47;;;22.40;1.00;;;;;;10822635;27;20292;-86
2024/05/02 19:13:33;;;;;;;6.47;3.63;;;22.30;1.00;;;;;;10799214;27;20482;-85
2024/05/02 19:18:55;;;;;;;6.22;3.80;;;22.30;29.90;;;;;;10875957;27;20293;-84
2024/05/02 19:24:17;;;;;;;9.57;4.10;;;22.20;94.80;;;;;;10879298;27;20226;-84
2024/05/02 19:29:39;;;;;;;7.85;3.80;;;;;;;;;;10777407;27;20242;-84
2024/05/02 19:35:01;;;;;;;5.47;3.38;;;;;;;;;;10829269;27;20457;-84
2024/05/02 19:40:23;;;;;;;4.88;2.85;;;21.70;99.90;;;;;;10849694;27;20237;-84
2024/05/02 19:45:44;;;;;;;4.97;2.83;;;21.60;99.90;;;;;;10856374;27;20253;-85
2024/05/02 19:51:06;;;;;;;4.78;3.17;;;;;;;;;;10850438;27;20269;-86
2024/05/02 19:56:28;;;;;;;4.93;2.83;;;;;;;;;;10879596;27;20253;-86
2024/05/02 20:01:50;;;;;;;4.50;3.10;;;;;;;;;;10877903;27;20242;-85
2024/05/02 20:07:12;;;;;;;6.80;3.03;;;21.40;14.90;;;;;;10855409;27;20334;-85
2024/05/02 20:12:33;;;;;;;6.82;2.92;;;21.40;29.70;;;;;;10813361;27;20247;-85
2024/05/02 20:17:55;;;;;;;7.13;3.35;;;;;;;;;;10787165;27;20227;-84
2024/05/02 20:23:17;;;;;;;5.43;3.45;;;21.00;99.90;;;;;;10867543;27;20238;-86
2024/05/02 20:28:41;;;;;;;7.10;3.60;;;20.80;1.00;;;;;;10878658;27;20339;-84
2024/05/02 20:34:03;;;;;;;7.95;3.53;;;20.80;1.00;;;;;;10828170;27;20276;-84
2024/05/02 20:39:24;;;;;;;7.47;3.33;;;20.90;48.20;;;;;;10854504;27;20272;-84
2024/05/02 20:44:45;;;;;;;4.72;3.17;;;20.80;55.10;;;;;;10773020;27;20547;-85
2024/05/02 20:50:07;;;;;;;5.00;2.67;;;;;;;;;;10847120;27;20321;-84
2024/05/02 20:55:32;;;;;;;6.43;2.83;;;20.50;99.90;;;;;;10827599;27;20249;-84
2024/05/02 21:00:55;;;;;;;7.80;3.30;;;;;;;;;;10850888;27;20246;-86
2024/05/02 21:06:19;;;;;;;6.88;3.35;;;;;;;;;;10803220;27;20262;-85
2024/05/02 21:11:44;;;;;;;5.30;4.10;;;;;;;;;;10825667;27;20250;-85
2024/05/02 21:17:06;;;;;;;7.25;4.10;;;;;;;;;;10877468;27;20272;-85
2024/05/02 21:22:28;;;;;;;4.10;3.33;;;;;;;;;;10876314;27;20344;-84
2024/05/02 21:27:50;;;;;;;5.00;2.83;;;;;;;;;;10830414;27;20230;-84
2024/05/02 21:33:12;;;;;;;6.65;3.53;;;;;;;;;;10851579;27;20512;-85
2024/05/02 21:38:34;;;;;;;5.63;3.17;;;;;;;;;;10852971;27;20241;-85
2024/05/02 21:43:56;;;;;;;7.50;3.35;;;20.20;1.00;;;;;;10828465;27;20338;-85
2024/05/02 21:49:17;;;;;;;6.07;2.60;;;20.30;1.00;;;;;;10802754;27;20245;-83
2024/05/02 21:54:39;;;;;;;10.65;3.10;;;;;;;;;;10875529;27;20241;-85
2024/05/02 22:00:01;;;;;;;6.47;2.80;;;19.90;99.90;;;;;;10851908;27;20285;-85
2024/05/02 22:05:31;;;;;;;5.25;2.70;;;19.90;1.00;;;;;;10860511;27;20249;-86
2024/05/02 22:10:53;;;;;;;7.25;3.10;;;19.80;99.90;;;;;;10858104;27;20305;-86
2024/05/02 22:16:14;;;;;;;5.45;2.67;;;19.70;99.90;;;;;;10836497;27;20265;-85
2024/05/02 22:21:37;;;;;;;4.25;2.85;;;19.60;99.90;;;;;;10881448;27;20238;-84
2024/05/02 22:26:58;;;;;;;4.45;2.70;;;19.50;99.90;;;;;;10859042;27;20256;-85
2024/05/02 22:32:20;;;;;;;7.07;4.05;;;19.50;99.90;;;;;;10853094;27;20246;-85
2024/05/02 22:37:41;;;;;;;6.03;3.55;;;19.40;99.90;;;;;;10858979;27;20346;-86
2024/05/02 22:43:03;;;;;;;5.38;3.08;;;19.30;99.90;;;;;;10881467;27;20284;-85
2024/05/02 22:48:25;;;;;;;6.32;2.90;;;19.20;99.90;;;;;;10853489;27;20363;-85
2024/05/02 22:53:46;;;;;;;7.32;3.05;;;19.10;99.90;;;;;;10857327;27;20253;-85
2024/05/02 22:59:08;;;;;;;4.30;2.88;;;19.00;99.90;;;;;;10858138;27;20238;-85
2024/05/02 23:04:29;;;;;;;4.15;2.83;;;18.90;99.90;;;;;;10855579;27;20254;-86
2024/05/02 23:09:51;;;;;;;4.85;3.40;;;18.90;99.90;;;;;;10830130;27;20233;-84
2024/05/02 23:15:13;;;;;;;4.32;2.90;;;18.80;99.90;;;;;;10878956;27;20440;-86
2024/05/02 23:20:34;;;;;;;6.00;3.42;;;18.70;99.90;;;;;;10856633;27;20462;-85
2024/05/02 23:25:55;;;;;;;5.93;2.83;;;18.60;99.90;;;;;;10766478;27;20382;-86
2024/05/02 23:31:17;;;;;;;5.43;2.63;;;18.60;99.90;;;;;;10800944;27;20246;-86
2024/05/02 23:36:39;;;;;;;3.92;2.70;;;18.50;99.90;;;;;;10881573;27;20282;-85
2024/05/02 23:42:01;;;;;;;4.05;3.20;;;18.40;99.90;;;;;;10828423;27;20246;-84
2024/05/02 23:47:22;;;;;;;6.28;3.10;;;18.40;99.90;;;;;;10856080;27;20252;-84
2024/05/02 23:52:44;;;;;;;5.07;3.00;;;18.40;99.90;;;;;;10855385;27;20316;-85
2024/05/02 23:58:06;;;;;;;3.53;2.63;;;18.30;99.90;;;;;;10835947;27;20309;-85
